Time;durP1;ratioP1;P1;durP2;ratioP2;P2;SDS_P1;SDS_P2;PMS_P1;PMS_P2;Temp;Humidity;BMP_temperature;BMP_pressure;BME280_temperature;BME280_humidity;BME280_pressure;Samples;Min_cycle;Max_cycle;Signal;HPM_P1;HPM_P2
2021/06/15 00:06:06;;;;;;;47.83;41.28;;;18.50;73.90;;;;;;5041130;28;20851;-74
2021/06/15 00:08:32;;;;;;;49.88;42.72;;;18.60;73.70;;;;;;5045287;28;20033;-74
2021/06/15 00:10:57;;;;;;;50.88;42.53;;;18.60;73.80;;;;;;5047172;28;20036;-73
2021/06/15 00:13:23;;;;;;;48.63;42.50;;;18.60;73.70;;;;;;5043279;28;20033;-75
2021/06/15 00:15:50;;;;;;;48.40;42.85;;;18.60;73.70;;;;;;5048580;28;20048;-73
2021/06/15 00:18:17;;;;;;;46.30;41.28;;;18.60;73.60;;;;;;5046025;28;20384;-73
2021/06/15 00:20:44;;;;;;;47.08;41.28;;;18.60;73.90;;;;;;5039169;28;20037;-73
2021/06/15 00:23:09;;;;;;;49.30;43.92;;;18.60;74.00;;;;;;5046815;28;20071;-74
2021/06/15 00:25:35;;;;;;;49.05;42.10;;;18.60;73.70;;;;;;5041399;28;20492;-73
2021/06/15 00:28:01;;;;;;;50.25;43.40;;;18.60;73.30;;;;;;5044231;28;21108;-74
2021/06/15 00:30:26;;;;;;;48.20;40.78;;;18.60;73.40;;;;;;5042477;28;20392;-75
2021/06/15 00:32:52;;;;;;;50.05;41.45;;;18.60;73.50;;;;;;5045951;28;20370;-74
2021/06/15 00:35:19;;;;;;;53.53;45.35;;;18.60;73.60;;;;;;5047353;28;20512;-73
2021/06/15 00:37:45;;;;;;;56.72;48.33;;;18.60;73.60;;;;;;5044158;28;20080;-73
2021/06/15 00:40:11;;;;;;;51.13;44.75;;;18.60;74.00;;;;;;5031220;28;20540;-75
2021/06/15 00:42:37;;;;;;;50.70;43.78;;;18.50;74.40;;;;;;5045944;28;20109;-75
2021/06/15 00:45:08;;;;;;;53.20;45.60;;;18.40;74.60;;;;;;5043780;28;20048;-74
2021/06/15 00:47:33;;;;;;;51.42;45.45;;;18.40;74.60;;;;;;5046601;28;20029;-73
2021/06/15 00:49:59;;;;;;;50.70;44.80;;;18.50;74.60;;;;;;5055718;28;20048;-77
2021/06/15 00:52:25;;;;;;;49.75;43.28;;;18.50;74.60;;;;;;5044281;28;20036;-74
2021/06/15 00:54:51;;;;;;;48.25;40.10;;;18.50;74.40;;;;;;5051988;28;20040;-74
2021/06/15 00:57:18;;;;;;;44.65;39.58;;;18.60;74.20;;;;;;5048236;28;20033;-73
2021/06/15 00:59:44;;;;;;;46.55;41.42;;;18.60;74.20;;;;;;5042787;28;20044;-74
2021/06/15 01:02:11;;;;;;;45.03;39.50;;;18.50;74.10;;;;;;5047837;28;20083;-73
2021/06/15 01:04:37;;;;;;;55.70;49.63;;;18.60;74.20;;;;;;5049447;28;20037;-74
2021/06/15 01:07:13;;;;;;;57.42;49.50;;;18.50;74.30;;;;;;5045408;28;20067;-73
2021/06/15 01:10:29;;;;;;;61.08;54.35;;;18.40;74.90;;;;;;5046122;28;20040;-74
2021/06/15 01:13:14;;;;;;;65.68;55.15;;;18.30;75.70;;;;;;5033485;28;20037;-74
2021/06/15 01:15:44;;;;;;;59.55;50.53;;;18.10;76.30;;;;;;5038045;28;20052;-75
2021/06/15 01:18:14;;;;;;;59.70;52.38;;;18.10;76.30;;;;;;5041337;28;20132;-73
2021/06/15 01:21:02;;;;;;;64.45;56.10;;;18.10;76.30;;;;;;5039352;28;20125;-75
2021/06/15 01:23:48;;;;;;;59.88;51.85;;;18.10;76.30;;;;;;5041661;28;20520;-73
2021/06/15 01:26:18;;;;;;;58.47;50.88;;;18.20;76.40;;;;;;5045169;28;20029;-77
2021/06/15 01:28:48;;;;;;;57.67;51.00;;;18.20;76.30;;;;;;5044323;28;20167;-74
2021/06/15 01:31:24;;;;;;;59.97;53.47;;;18.20;76.20;;;;;;5044066;28;20033;-73
2021/06/15 01:34:03;;;;;;;65.15;56.67;;;18.20;76.00;;;;;;5043318;28;20440;-74
2021/06/15 01:36:34;;;;;;;69.22;57.75;;;18.10;76.10;;;;;;5046839;28;20060;-73
2021/06/15 01:39:05;;;;;;;66.10;59.03;;;18.00;76.70;;;;;;5041427;28;20054;-74
2021/06/15 01:41:39;;;;;;;65.65;58.30;;;17.80;77.70;;;;;;5043746;28;20037;-73
2021/06/15 01:44:07;;;;;;;69.10;60.28;;;17.80;77.80;;;;;;5048342;28;20064;-74
2021/06/15 01:46:41;;;;;;;70.47;62.78;;;17.80;77.90;;;;;;5045884;28;20545;-75
2021/06/15 01:49:13;;;;;;;69.47;60.77;;;17.80;77.90;;;;;;5045610;28;20045;-77
2021/06/15 01:51:41;;;;;;;69.00;61.33;;;17.80;78.00;;;;;;5041782;28;20067;-74
2021/06/15 01:54:10;;;;;;;67.35;59.70;;;17.80;78.20;;;;;;5044475;28;21510;-74
2021/06/15 01:56:41;;;;;;;70.97;63.20;;;17.80;78.10;;;;;;5042312;28;20043;-75
2021/06/15 01:59:13;;;;;;;72.63;61.10;;;17.80;78.20;;;;;;5042856;28;20476;-74
2021/06/15 02:01:46;;;;;;;74.22;63.50;;;17.80;78.50;;;;;;5044902;28;20040;-73
2021/06/15 02:04:12;;;;;;;70.22;62.42;;;17.70;78.90;;;;;;5045598;28;20041;-73
2021/06/15 02:06:43;;;;;;;71.40;62.92;;;17.60;79.70;;;;;;5044138;28;20385;-73
2021/06/15 02:09:10;;;;;;;69.57;62.05;;;17.50;79.90;;;;;;5045751;28;20033;-73
2021/06/15 02:11:36;;;;;;;69.53;61.75;;;17.50;80.20;;;;;;5045922;28;20037;-78
2021/06/15 02:14:04;;;;;;;73.53;64.28;;;17.40;80.40;;;;;;5045815;28;20055;-75
2021/06/15 02:16:31;;;;;;;74.47;63.20;;;17.40;81.00;;;;;;5046213;28;20029;-75
2021/06/15 02:18:57;;;;;;;74.63;66.53;;;17.30;81.20;;;;;;5039430;28;20098;-75
2021/06/15 02:21:27;;;;;;;77.75;64.22;;;17.40;81.10;;;;;;5039918;28;20107;-75
2021/06/15 02:23:59;;;;;;;73.78;64.47;;;17.40;81.20;;;;;;5039410;28;20053;-74
2021/06/15 02:26:26;;;;;;;75.10;66.40;;;17.40;81.20;;;;;;5043235;28;20033;-74
2021/06/15 02:28:52;;;;;;;70.85;63.03;;;17.40;81.30;;;;;;5046801;28;20040;-74
2021/06/15 02:31:27;;;;;;;69.35;60.60;;;17.40;81.40;;;;;;5060511;28;20461;-74
2021/06/15 02:33:56;;;;;;;72.78;64.53;;;17.40;81.30;;;;;;5045918;28;20063;-74
2021/06/15 02:36:30;;;;;;;69.55;61.92;;;17.40;81.20;;;;;;5044708;28;20049;-74
2021/06/15 02:39:05;;;;;;;70.80;63.03;;;17.40;81.40;;;;;;5044850;28;20040;-73
2021/06/15 02:41:34;;;;;;;74.95;63.33;;;17.40;81.20;;;;;;5045090;28;20488;-74
2021/06/15 02:44:02;;;;;;;73.65;60.30;;;17.40;81.50;;;;;;5046382;28;20067;-73
2021/06/15 02:46:30;;;;;;;70.70;62.53;;;17.40;81.30;;;;;;5044843;28;20396;-73
2021/06/15 02:48:59;;;;;;;67.88;60.50;;;17.40;81.30;;;;;;5045428;28;20057;-74
2021/06/15 02:51:29;;;;;;;66.60;59.22;;;17.40;81.30;;;;;;5045718;28;20037;-73
2021/06/15 02:54:09;;;;;;;66.35;58.58;;;17.40;81.40;;;;;;5045272;28;20117;-74
2021/06/15 02:56:39;;;;;;;67.68;58.35;;;17.50;81.50;;;;;;5042602;28;20396;-74
2021/06/15 02:59:05;;;;;;;69.47;61.70;;;17.60;81.10;;;;;;5043053;28;20453;-73
2021/06/15 03:01:30;;;;;;;68.85;59.20;;;17.60;81.00;;;;;;5044680;28;20048;-75
2021/06/15 03:03:56;;;;;;;70.15;62.30;;;17.50;81.30;;;;;;5044888;28;20037;-74
2021/06/15 03:06:22;;;;;;;67.68;59.65;;;17.50;81.40;;;;;;5043207;28;20468;-77
2021/06/15 03:08:47;;;;;;;66.18;59.08;;;17.50;81.40;;;;;;5043797;28;20049;-73
2021/06/15 03:11:17;;;;;;;66.20;58.75;;;17.60;81.40;;;;;;5047065;28;20040;-73
2021/06/15 03:13:49;;;;;;;65.72;58.53;;;17.60;81.20;;;;;;5044348;28;20037;-76
2021/06/15 03:16:22;;;;;;;65.43;57.95;;;17.60;81.20;;;;;;5044652;28;20056;-73
2021/06/15 03:19:06;;;;;;;65.40;58.20;;;17.60;81.30;;;;;;5048678;28;20483;-73
2021/06/15 03:21:38;;;;;;;66.90;59.60;;;17.60;81.30;;;;;;5046283;28;20092;-75
2021/06/15 03:24:07;;;;;;;69.13;58.65;;;17.60;81.30;;;;;;5047524;28;20121;-74
2021/06/15 03:26:40;;;;;;;65.53;57.95;;;17.60;81.50;;;;;;5048151;28;20053;-74
2021/06/15 03:29:11;;;;;;;66.20;57.53;;;17.60;81.70;;;;;;5048030;28;20643;-73
2021/06/15 03:31:43;;;;;;;63.72;54.90;;;17.60;81.70;;;;;;5050504;28;20385;-73
2021/06/15 03:34:11;;;;;;;68.10;58.75;;;17.60;81.80;;;;;;5044710;28;20033;-74
2021/06/15 03:36:39;;;;;;;67.03;57.72;;;17.60;82.10;;;;;;5048579;28;20044;-74
2021/06/15 03:39:06;;;;;;;63.83;55.92;;;17.60;82.20;;;;;;5044296;28;20037;-78
2021/06/15 03:41:33;;;;;;;67.07;58.85;;;17.60;82.20;;;;;;5047543;28;20181;-73
2021/06/15 03:44:03;;;;;;;65.78;58.75;;;17.60;82.20;;;;;;5049659;28;20433;-74
2021/06/15 03:46:32;;;;;;;64.93;57.78;;;17.50;82.60;;;;;;5047829;28;20037;-73
2021/06/15 03:49:01;;;;;;;64.50;57.28;;;17.50;82.50;;;;;;5053841;28;20051;-77
2021/06/15 03:51:32;;;;;;;67.78;59.25;;;17.50;82.60;;;;;;5046212;28;20480;-76
2021/06/15 03:54:08;;;;;;;60.22;53.63;;;17.60;82.80;;;;;;5049984;28;20068;-74
2021/06/15 03:56:44;;;;;;;60.47;53.90;;;17.60;82.50;;;;;;5049030;28;20123;-75
2021/06/15 03:59:13;;;;;;;58.17;51.88;;;17.60;82.20;;;;;;5044594;28;20043;-74
2021/06/15 04:01:41;;;;;;;61.60;54.97;;;17.70;81.70;;;;;;5047877;28;20120;-73
2021/06/15 04:04:10;;;;;;;60.33;50.55;;;17.70;81.60;;;;;;5045909;28;20101;-74
2021/06/15 04:06:39;;;;;;;60.25;52.30;;;17.70;81.70;;;;;;5049069;28;20033;-78
2021/06/15 04:09:07;;;;;;;59.88;52.47;;;17.70;82.00;;;;;;5047453;28;20112;-75
2021/06/15 04:11:35;;;;;;;59.63;50.85;;;17.70;81.80;;;;;;5046368;28;20032;-74
2021/06/15 04:14:03;;;;;;;56.97;49.58;;;17.70;81.90;;;;;;5039555;28;20413;-75
2021/06/15 04:16:29;;;;;;;56.72;49.42;;;17.80;81.80;;;;;;5048224;28;20107;-74
2021/06/15 04:18:58;;;;;;;56.58;48.80;;;17.90;81.80;;;;;;5048016;28;20186;-74
2021/06/15 04:21:25;;;;;;;56.28;47.67;;;18.00;81.50;;;;;;5044438;28;20419;-74
2021/06/15 04:24:01;;;;;;;55.88;47.00;;;18.00;81.30;;;;;;5046391;28;20040;-73
2021/06/15 04:26:27;;;;;;;52.75;46.20;;;18.10;80.60;;;;;;5046433;28;20086;-73
2021/06/15 04:28:53;;;;;;;54.80;47.20;;;18.10;81.00;;;;;;5047665;28;20036;-74
2021/06/15 04:31:23;;;;;;;50.63;44.83;;;18.10;81.00;;;;;;5049220;28;20384;-73
2021/06/15 04:33:51;;;;;;;50.28;44.10;;;18.10;81.00;;;;;;5051621;28;20477;-78
2021/06/15 04:36:18;;;;;;;51.25;45.13;;;18.10;80.80;;;;;;5042080;28;20045;-74
2021/06/15 04:38:48;;;;;;;49.53;44.08;;;18.10;80.90;;;;;;5054481;28;20454;-73
2021/06/15 04:41:18;;;;;;;51.65;44.13;;;18.20;81.00;;;;;;5046047;28;20309;-73
2021/06/15 04:43:52;;;;;;;48.05;41.30;;;18.20;80.80;;;;;;5042525;28;20033;-73
2021/06/15 04:46:32;;;;;;;49.08;43.70;;;18.30;80.70;;;;;;5044061;28;20029;-74
2021/06/15 04:49:36;;;;;;;48.00;40.88;;;18.30;80.60;;;;;;5048434;28;20033;-74
2021/06/15 04:52:04;;;;;;;45.53;39.78;;;18.30;80.90;;;;;;5025106;28;20069;-75
2021/06/15 04:54:38;;;;;;;47.53;40.47;;;18.30;80.80;;;;;;5045370;28;20029;-74
2021/06/15 04:57:09;;;;;;;44.60;39.80;;;18.40;80.90;;;;;;5045184;28;20094;-73
2021/06/15 04:59:37;;;;;;;43.38;38.22;;;18.30;81.00;;;;;;5044513;28;20116;-75
2021/06/15 05:02:04;;;;;;;43.30;35.38;;;18.40;80.90;;;;;;5043159;28;20061;-73
2021/06/15 05:04:31;;;;;;;40.53;34.97;;;18.50;80.60;;;;;;5043185;28;20041;-74
2021/06/15 05:06:57;;;;;;;40.60;33.33;;;18.60;80.30;;;;;;5044521;28;20029;-73
2021/06/15 05:09:29;;;;;;;39.47;34.03;;;18.70;79.80;;;;;;5037534;28;20044;-74
2021/06/15 05:11:56;;;;;;;38.00;33.33;;;18.90;79.40;;;;;;5042897;28;20029;-73
2021/06/15 05:14:26;;;;;;;34.35;30.58;;;19.10;78.60;;;;;;5045274;28;20045;-74
2021/06/15 05:16:53;;;;;;;36.40;29.70;;;19.60;77.10;;;;;;5037058;28;20388;-78
2021/06/15 05:19:19;;;;;;;33.63;28.35;;;20.10;75.70;;;;;;5042288;28;20037;-75
2021/06/15 05:22:09;;;;;;;34.72;28.77;;;20.20;74.70;;;;;;5042024;28;20051;-73
2021/06/15 05:24:48;;;;;;;31.58;27.00;;;20.50;74.00;;;;;;5050184;28;20554;-73
2021/06/15 05:27:15;;;;;;;31.10;26.48;;;20.80;72.70;;;;;;5042018;28;20099;-78
2021/06/15 05:29:41;;;;;;;30.08;25.48;;;21.10;71.60;;;;;;5061176;28;20430;-74
2021/06/15 05:32:08;;;;;;;29.13;25.90;;;21.30;70.90;;;;;;5043594;28;20472;-72
2021/06/15 05:34:37;;;;;;;32.92;26.70;;;21.50;70.10;;;;;;5044213;28;20041;-68
2021/06/15 05:37:05;;;;;;;29.52;24.17;;;21.80;68.90;;;;;;5043455;28;20038;-69
2021/06/15 05:39:31;;;;;;;29.80;24.10;;;22.00;69.00;;;;;;5034628;28;20466;-71
2021/06/15 05:41:57;;;;;;;29.95;25.67;;;22.10;67.50;;;;;;5031494;28;20091;-69
2021/06/15 05:44:23;;;;;;;30.10;24.33;;;22.20;67.40;;;;;;5031673;28;20480;-70
2021/06/15 05:46:49;;;;;;;28.40;24.27;;;22.30;67.70;;;;;;5032575;28;20107;-69
2021/06/15 05:49:14;;;;;;;32.80;25.15;;;22.50;66.40;;;;;;5031261;28;20447;-70
2021/06/15 05:51:40;;;;;;;28.05;25.05;;;22.50;66.40;;;;;;5026945;28;20047;-69
2021/06/15 05:54:07;;;;;;;29.70;23.90;;;22.40;67.10;;;;;;5032370;28;20048;-70
2021/06/15 05:56:33;;;;;;;30.38;26.40;;;22.50;67.10;;;;;;5025763;28;20427;-70
2021/06/15 05:58:59;;;;;;;30.52;26.17;;;21.60;69.30;;;;;;5033055;28;20033;-73
2021/06/15 06:01:26;;;;;;;29.33;24.77;;;21.40;70.50;;;;;;5030316;28;20063;-69
2021/06/15 06:04:15;;;;;;;29.42;24.38;;;21.30;71.20;;;;;;5030381;28;20025;-69
2021/06/15 06:09:23;;;;;;;27.95;22.90;;;21.20;70.00;;;;;;5033619;28;20052;-70
2021/06/15 06:11:49;;;;;;;25.67;21.38;;;21.50;69.30;;;;;;5032997;28;20037;-71
2021/06/15 06:14:15;;;;;;;23.25;20.50;;;21.50;69.60;;;;;;5031549;28;20098;-71
2021/06/15 06:16:42;;;;;;;22.77;18.25;;;21.30;69.00;;;;;;5032162;28;20061;-69
2021/06/15 06:19:10;;;;;;;21.63;17.65;;;21.50;68.50;;;;;;5033665;28;20127;-72
2021/06/15 06:21:36;;;;;;;17.10;14.88;;;21.50;69.10;;;;;;5036177;28;20568;-69
2021/06/15 06:24:04;;;;;;;19.17;14.57;;;21.60;67.80;;;;;;5030652;28;20595;-69
2021/06/15 06:26:29;;;;;;;18.58;13.30;;;21.50;68.20;;;;;;5029539;28;20033;-71
2021/06/15 06:28:55;;;;;;;17.75;12.40;;;21.60;66.60;;;;;;5033759;28;20098;-70
2021/06/15 06:31:21;;;;;;;15.23;11.50;;;21.40;67.30;;;;;;5030938;28;20136;-68
2021/06/15 06:33:47;;;;;;;17.10;12.07;;;21.00;68.10;;;;;;5030994;28;20041;-71
2021/06/15 06:36:13;;;;;;;13.98;10.93;;;21.10;68.20;;;;;;5032240;28;20057;-74
2021/06/15 06:38:39;;;;;;;13.75;10.80;;;21.20;67.50;;;;;;5033386;28;20192;-74
2021/06/15 06:41:04;;;;;;;13.07;9.95;;;21.10;67.20;;;;;;5032587;28;20123;-72
2021/06/15 06:43:31;;;;;;;13.13;9.93;;;21.20;67.50;;;;;;5030750;28;20037;-73
2021/06/15 06:45:56;;;;;;;15.73;9.75;;;21.10;67.20;;;;;;5034252;28;20048;-75
2021/06/15 06:48:22;;;;;;;15.20;9.40;;;21.10;67.10;;;;;;5033247;28;20044;-73
2021/06/15 06:50:48;;;;;;;12.90;9.27;;;21.00;66.90;;;;;;5035049;28;20499;-75
2021/06/15 06:53:14;;;;;;;11.98;9.13;;;20.90;67.10;;;;;;5031524;28;20038;-75
2021/06/15 06:55:40;;;;;;;11.32;8.30;;;21.00;67.00;;;;;;5031273;28;20033;-75
2021/06/15 06:58:06;;;;;;;12.30;8.07;;;21.10;66.30;;;;;;5031092;28;20048;-72
2021/06/15 07:00:33;;;;;;;12.27;8.93;;;21.10;67.20;;;;;;5036474;28;20044;-71
2021/06/15 07:02:59;;;;;;;13.55;8.07;;;21.30;66.70;;;;;;5036911;28;20122;-75
2021/06/15 07:05:24;;;;;;;15.10;8.60;;;21.50;65.20;;;;;;5034596;28;20853;-72
2021/06/15 07:07:51;;;;;;;14.57;9.25;;;21.50;65.40;;;;;;5032222;28;20045;-73
2021/06/15 07:10:20;;;;;;;11.40;7.80;;;21.50;66.20;;;;;;5032050;28;20037;-73
2021/06/15 07:12:47;;;;;;;14.15;8.93;;;21.50;65.40;;;;;;5033561;28;20124;-74
2021/06/15 07:15:13;;;;;;;13.05;7.90;;;21.60;64.80;;;;;;5037708;28;20473;-74
2021/06/15 07:17:39;;;;;;;15.18;9.30;;;21.90;63.90;;;;;;5047976;28;20147;-73
2021/06/15 07:20:06;;;;;;;11.77;8.65;;;21.90;63.80;;;;;;5031041;28;20037;-73
2021/06/15 07:22:32;;;;;;;15.88;9.13;;;22.10;64.50;;;;;;5029857;28;20448;-71
2021/06/15 07:24:58;;;;;;;13.32;9.68;;;22.30;63.60;;;;;;5029919;28;20115;-74
2021/06/15 07:27:24;;;;;;;12.73;8.57;;;22.30;63.50;;;;;;5032067;28;20119;-71
2021/06/15 07:29:50;;;;;;;15.93;8.40;;;22.30;63.20;;;;;;5032639;28;20083;-71
2021/06/15 07:32:15;;;;;;;12.57;9.23;;;22.10;63.40;;;;;;5029793;28;20163;-73
2021/06/15 07:34:41;;;;;;;13.05;8.07;;;22.50;62.70;;;;;;5032703;28;20072;-76
2021/06/15 07:37:07;;;;;;;14.98;8.55;;;22.50;62.80;;;;;;5029830;28;20099;-76
2021/06/15 07:39:33;;;;;;;13.40;8.60;;;22.80;61.80;;;;;;5029569;28;20700;-71
2021/06/15 07:41:59;;;;;;;14.60;9.07;;;22.80;61.60;;;;;;5032896;28;20029;-72
2021/06/15 07:44:25;;;;;;;12.25;8.88;;;23.00;60.50;;;;;;5032007;28;20049;-73
2021/06/15 07:46:53;;;;;;;11.13;8.35;;;22.90;61.10;;;;;;5030124;28;20041;-71
2021/06/15 07:49:19;;;;;;;15.38;9.55;;;22.90;61.20;;;;;;5031200;28;20112;-71
2021/06/15 07:51:45;;;;;;;12.55;8.32;;;22.80;60.70;;;;;;5031815;28;20063;-76
2021/06/15 07:54:10;;;;;;;12.32;7.55;;;23.10;61.20;;;;;;5031545;28;20090;-75
2021/06/15 07:56:36;;;;;;;12.18;7.18;;;23.60;60.00;;;;;;5032277;28;20033;-72
2021/06/15 07:59:02;;;;;;;11.43;7.15;;;23.40;58.50;;;;;;5035899;28;20036;-70
2021/06/15 08:01:28;;;;;;;11.73;6.93;;;23.50;58.20;;;;;;5034669;28;20037;-72
2021/06/15 08:03:53;;;;;;;11.18;7.90;;;23.50;57.60;;;;;;5034041;28;20445;-71
2021/06/15 08:06:19;;;;;;;13.15;7.68;;;23.40;58.50;;;;;;5038404;28;20036;-72
2021/06/15 08:08:46;;;;;;;11.30;7.72;;;23.00;59.90;;;;;;5034898;28;20048;-74
2021/06/15 08:11:11;;;;;;;12.25;6.38;;;22.80;60.00;;;;;;5035392;28;20051;-70
2021/06/15 08:13:37;;;;;;;10.02;6.13;;;22.90;59.40;;;;;;5037101;28;20392;-71
2021/06/15 08:16:03;;;;;;;9.43;6.40;;;22.80;59.10;;;;;;5033963;28;20048;-70
2021/06/15 08:18:29;;;;;;;10.07;6.22;;;22.50;59.40;;;;;;5034590;28;20454;-71
2021/06/15 08:20:54;;;;;;;11.02;7.07;;;22.60;60.10;;;;;;5031821;28;20037;-75
2021/06/15 08:23:22;;;;;;;9.27;5.90;;;22.90;59.20;;;;;;5035197;28;20172;-70
2021/06/15 08:25:48;;;;;;;10.63;6.10;;;23.20;58.30;;;;;;5035480;28;20065;-76
2021/06/15 08:28:13;;;;;;;9.45;5.50;;;23.10;57.40;;;;;;5037762;28;20451;-71
2021/06/15 08:30:39;;;;;;;8.65;5.05;;;23.40;57.30;;;;;;5032929;28;20037;-71
2021/06/15 08:33:05;;;;;;;9.20;4.93;;;23.50;56.80;;;;;;5039644;28;20078;-69
2021/06/15 08:35:32;;;;;;;11.23;5.82;;;23.80;54.80;;;;;;5038456;28;20049;-70
2021/06/15 08:37:57;;;;;;;9.48;5.82;;;23.90;55.00;;;;;;5037466;28;20106;-70
2021/06/15 08:40:23;;;;;;;8.85;5.00;;;23.60;55.40;;;;;;5033498;28;20409;-72
2021/06/15 08:42:49;;;;;;;8.80;5.38;;;23.40;56.50;;;;;;5035121;28;20041;-71
2021/06/15 08:45:16;;;;;;;9.00;5.53;;;24.10;55.60;;;;;;5033929;28;20466;-71
2021/06/15 08:47:45;;;;;;;8.57;5.43;;;24.20;54.20;;;;;;5035894;28;20033;-69
2021/06/15 08:50:13;;;;;;;10.95;5.00;;;24.00;54.20;;;;;;5035340;28;20041;-70
2021/06/15 08:52:40;;;;;;;10.93;5.00;;;24.00;54.90;;;;;;5032727;28;20033;-69
2021/06/15 08:55:07;;;;;;;8.55;5.10;;;24.10;54.50;;;;;;5033379;28;20045;-72
2021/06/15 08:57:35;;;;;;;8.00;4.80;;;24.30;52.70;;;;;;5035480;28;20037;-70
2021/06/15 09:00:03;;;;;;;7.70;4.70;;;24.00;54.50;;;;;;5035230;28;20578;-69
2021/06/15 09:02:29;;;;;;;12.77;4.22;;;24.40;53.10;;;;;;5034257;28;20029;-69
2021/06/15 09:04:54;;;;;;;11.35;4.68;;;25.20;51.70;;;;;;5033295;28;20055;-70
2021/06/15 09:07:20;;;;;;;8.73;4.18;;;25.50;49.70;;;;;;5034342;28;20452;-68
2021/06/15 09:09:49;;;;;;;7.65;4.13;;;25.50;48.30;;;;;;5034662;28;20040;-71
2021/06/15 09:12:17;;;;;;;7.13;4.05;;;25.50;49.00;;;;;;5033165;28;20041;-71
2021/06/15 09:14:50;;;;;;;7.30;3.40;;;25.10;48.90;;;;;;5035924;28;20040;-72
2021/06/15 09:17:36;;;;;;;9.18;4.05;;;24.40;49.80;;;;;;5031162;28;20072;-72
2021/06/15 09:20:19;;;;;;;7.70;3.33;;;24.10;51.00;;;;;;5031324;28;20116;-69
2021/06/15 09:22:45;;;;;;;8.05;4.50;;;24.80;50.40;;;;;;5033880;28;20044;-71
2021/06/15 09:25:15;;;;;;;7.50;4.00;;;24.80;49.70;;;;;;5031377;28;20614;-69
2021/06/15 09:27:41;;;;;;;9.18;4.03;;;24.70;50.40;;;;;;5033168;28;20060;-69
2021/06/15 09:30:12;;;;;;;7.00;3.72;;;25.10;48.70;;;;;;5030934;28;20492;-69
2021/06/15 09:32:41;;;;;;;8.98;3.17;;;24.60;49.00;;;;;;5032033;28;20124;-71
2021/06/15 09:35:10;;;;;;;6.00;3.13;;;24.70;49.40;;;;;;5030851;28;20477;-69
2021/06/15 09:37:39;;;;;;;7.28;3.53;;;25.20;50.20;;;;;;5034610;28;20579;-71
2021/06/15 09:40:10;;;;;;;6.35;3.05;;;26.10;48.10;;;;;;5035182;28;20034;-68
2021/06/15 09:43:12;;;;;;;7.32;3.67;;;26.00;47.80;;;;;;5035463;28;20033;-68
2021/06/15 09:45:46;;;;;;;9.93;3.20;;;25.50;47.20;;;;;;5024577;28;20099;-71
2021/06/15 09:48:23;;;;;;;8.10;4.25;;;25.50;48.70;;;;;;5034927;28;20037;-69
2021/06/15 09:51:00;;;;;;;9.20;3.53;;;26.10;47.10;;;;;;5030274;28;20037;-71
2021/06/15 09:53:37;;;;;;;5.95;3.22;;;26.30;47.00;;;;;;5033569;28;20033;-70
2021/06/15 09:56:08;;;;;;;8.93;4.68;;;26.30;46.40;;;;;;5033237;28;20699;-71
2021/06/15 09:58:52;;;;;;;12.98;6.30;;;26.00;48.70;;;;;;5033106;28;20163;-69
2021/06/15 10:01:29;;;;;;;11.57;5.95;;;25.60;50.20;;;;;;5032020;28;20056;-69
2021/06/15 10:04:16;;;;;;;10.52;5.13;;;25.30;51.20;;;;;;5031778;28;20043;-71
2021/06/15 10:06:56;;;;;;;12.73;5.97;;;25.30;51.70;;;;;;5029497;28;20059;-72
2021/06/15 10:09:29;;;;;;;9.20;5.25;;;25.40;51.40;;;;;;5031864;28;20021;-71
2021/06/15 10:12:04;;;;;;;13.95;5.57;;;25.20;52.10;;;;;;5030315;28;20059;-69
2021/06/15 10:14:31;;;;;;;8.75;5.00;;;25.00;51.80;;;;;;5034734;28;20036;-72
2021/06/15 10:16:58;;;;;;;8.85;4.85;;;25.20;51.00;;;;;;5030209;28;20043;-69
2021/06/15 10:19:24;;;;;;;11.23;5.38;;;25.10;51.60;;;;;;5029175;28;20370;-68
2021/06/15 10:21:51;;;;;;;10.50;5.07;;;25.20;51.90;;;;;;5030266;28;20262;-69
2021/06/15 10:24:22;;;;;;;10.77;5.78;;;25.40;51.50;;;;;;5031209;28;20049;-68
2021/06/15 10:26:49;;;;;;;14.13;6.68;;;25.00;51.50;;;;;;5032911;28;20484;-68
2021/06/15 10:29:16;;;;;;;9.93;5.45;;;25.10;51.30;;;;;;5033954;28;20368;-67
2021/06/15 10:31:45;;;;;;;12.85;6.05;;;25.50;50.60;;;;;;5030003;28;20029;-67
2021/06/15 10:34:11;;;;;;;10.93;6.13;;;25.50;51.50;;;;;;5031265;28;20033;-70
2021/06/15 10:36:45;;;;;;;10.88;5.90;;;25.50;50.50;;;;;;5030693;28;20681;-67
2021/06/15 10:39:39;;;;;;;9.60;5.85;;;25.80;50.20;;;;;;5027914;28;20115;-68
2021/06/15 10:42:18;;;;;;;9.88;5.80;;;25.30;51.30;;;;;;5026906;28;21041;-68
2021/06/15 10:44:44;;;;;;;9.95;6.00;;;25.50;50.80;;;;;;5028490;28;20045;-67
2021/06/15 10:47:13;;;;;;;9.27;5.55;;;25.80;49.60;;;;;;5026316;28;20727;-68
2021/06/15 10:50:07;;;;;;;11.65;6.25;;;26.20;48.90;;;;;;5030742;28;20044;-68
2021/06/15 10:53:01;;;;;;;12.38;5.60;;;26.00;49.80;;;;;;5027117;28;20171;-68
2021/06/15 10:55:48;;;;;;;9.30;6.40;;;26.30;49.60;;;;;;5028506;28;20130;-67
2021/06/15 10:58:16;;;;;;;10.88;5.95;;;25.50;50.20;;;;;;5028617;28;21206;-69
2021/06/15 11:00:47;;;;;;;10.80;6.28;;;25.30;51.10;;;;;;5025311;28;20053;-71
2021/06/15 11:03:16;;;;;;;11.10;5.75;;;25.10;51.50;;;;;;5035439;28;20541;-68
2021/06/15 11:06:02;;;;;;;9.70;5.68;;;25.30;51.10;;;;;;5054284;28;20049;-68
2021/06/15 11:08:30;;;;;;;11.35;6.20;;;25.30;50.40;;;;;;5036340;28;20107;-69
2021/06/15 11:11:01;;;;;;;10.10;5.57;;;25.60;49.60;;;;;;5031237;28;20041;-69
2021/06/15 11:13:49;;;;;;;9.98;5.32;;;26.20;49.10;;;;;;5035535;28;20033;-68
2021/06/15 11:16:36;;;;;;;10.10;7.28;;;26.50;48.30;;;;;;5036772;28;20112;-69
2021/06/15 11:19:12;;;;;;;10.07;6.28;;;25.80;49.60;;;;;;5037277;28;20388;-69
2021/06/15 11:21:49;;;;;;;12.18;5.93;;;25.60;50.20;;;;;;5037338;28;20097;-69
2021/06/15 11:24:25;;;;;;;10.90;6.35;;;25.20;51.80;;;;;;5037585;28;20072;-67
2021/06/15 11:27:00;;;;;;;10.65;6.05;;;25.70;50.20;;;;;;5040049;28;20132;-69
2021/06/15 11:29:37;;;;;;;10.70;5.93;;;26.00;49.90;;;;;;5038046;28;20033;-68
2021/06/15 11:32:17;;;;;;;8.15;5.03;;;25.90;49.20;;;;;;5036286;28;20049;-69
2021/06/15 11:35:03;;;;;;;9.13;4.45;;;26.10;49.60;;;;;;5041569;28;20056;-70
2021/06/15 11:37:36;;;;;;;8.70;5.88;;;26.40;48.50;;;;;;5040276;28;20060;-68
2021/06/15 11:40:31;;;;;;;9.95;5.65;;;26.80;47.00;;;;;;5041448;28;20033;-68
2021/06/15 11:43:18;;;;;;;9.73;6.30;;;27.00;45.80;;;;;;5041567;28;20538;-69
2021/06/15 11:45:47;;;;;;;10.00;6.28;;;27.10;46.80;;;;;;5043164;28;20041;-68
2021/06/15 11:48:34;;;;;;;8.48;5.65;;;27.00;45.70;;;;;;5035428;28;20648;-69
2021/06/15 11:51:06;;;;;;;8.77;4.43;;;26.60;46.30;;;;;;5037822;28;20037;-68
2021/06/15 11:53:36;;;;;;;10.50;4.70;;;26.80;47.20;;;;;;5037449;28;20722;-68
2021/06/15 11:56:04;;;;;;;7.72;4.30;;;27.50;46.10;;;;;;5041319;28;20044;-69
2021/06/15 11:58:33;;;;;;;8.20;5.00;;;28.00;44.90;;;;;;5042435;28;20127;-67
2021/06/15 12:01:10;;;;;;;11.02;4.70;;;27.50;44.10;;;;;;5037951;28;20037;-68
2021/06/15 12:03:42;;;;;;;8.38;4.97;;;27.00;46.30;;;;;;5041515;28;20029;-67
2021/06/15 12:06:10;;;;;;;12.95;5.40;;;26.40;46.90;;;;;;5041540;28;20041;-68
2021/06/15 12:08:37;;;;;;;8.73;4.75;;;26.30;47.90;;;;;;5039007;28;20074;-71
2021/06/15 12:11:06;;;;;;;7.57;4.70;;;26.80;47.20;;;;;;5041216;28;20491;-69
2021/06/15 12:13:34;;;;;;;7.13;3.80;;;26.80;46.90;;;;;;5041102;28;20029;-68
2021/06/15 12:16:04;;;;;;;7.70;4.20;;;26.70;48.00;;;;;;5037070;28;20069;-70
2021/06/15 12:18:40;;;;;;;9.50;4.75;;;26.70;47.20;;;;;;5041487;28;20373;-68
2021/06/15 12:21:12;;;;;;;8.43;4.88;;;27.00;46.40;;;;;;5035703;28;20165;-68
2021/06/15 12:23:41;;;;;;;8.55;4.65;;;26.80;46.50;;;;;;5039006;28;20037;-69
2021/06/15 12:26:32;;;;;;;8.85;4.70;;;27.00;46.00;;;;;;5038744;28;20032;-68
2021/06/15 12:29:10;;;;;;;8.27;5.28;;;26.70;45.90;;;;;;5044445;28;20036;-69
2021/06/15 12:31:35;;;;;;;8.57;4.70;;;26.60;47.60;;;;;;5045123;28;20037;-70
2021/06/15 12:34:06;;;;;;;9.68;4.68;;;27.10;46.30;;;;;;5042516;28;20037;-69
2021/06/15 12:36:34;;;;;;;9.20;4.32;;;26.90;47.60;;;;;;5050803;28;20052;-69
2021/06/15 12:39:17;;;;;;;9.60;4.72;;;27.60;46.80;;;;;;5048148;28;20032;-68
2021/06/15 12:41:55;;;;;;;6.63;3.25;;;28.10;44.20;;;;;;5045461;28;20468;-70
2021/06/15 12:44:30;;;;;;;9.23;4.50;;;28.50;45.00;;;;;;5047017;28;20052;-69
2021/06/15 12:47:03;;;;;;;8.23;4.35;;;28.40;43.50;;;;;;5048076;28;20029;-70
2021/06/15 12:49:28;;;;;;;7.13;3.47;;;28.00;43.10;;;;;;5047232;28;20082;-70
2021/06/15 12:52:13;;;;;;;8.35;3.78;;;27.60;44.20;;;;;;5037427;28;20037;-70
2021/06/15 12:54:42;;;;;;;8.43;3.83;;;27.60;45.00;;;;;;5045392;28;20039;-70
2021/06/15 12:57:10;;;;;;;8.45;4.32;;;27.40;44.40;;;;;;5044153;28;20033;-68